KJCT/JCT METAR and TAF weather

Enter ICAO airport designator
Station Type Date Time Source
KJCT METAR 2020/09/21 08:51 UTC NOAA

KJCT 210851Z AUTO 00000KT 7SM -RA OVC015 17/14 A3011 RMK AO2 RAE0759B18 SLP162 P0001 60001 T01670144 58005


Station Type Date Time Source
KJCT Decoded METAR 2020/09/21 08:51 UTC NOAA

KIMBLE COUNTY AIRPORT, TX, United States (KJCT) 30-31N 099-46W 523M
Sep 21, 2020 - 04:51 AM EDT / 2020.09.21 0851 UTC
Wind: Calm:0
Visibility: 7 mile(s):0
Sky conditions: overcast
Weather: light rain
Precipitation last hour: 0.01 inches
Temperature: 62.1 F (16.7 C)
Dew Point: 57.9 F (14.4 C)
Relative Humidity: 86%
Pressure (altimeter): 30.11 in. Hg (1019 hPa)
Pressure tendency: 0.01 inches (0.5 hPa) lower than three hours ago
ob: KJCT 210851Z AUTO 00000KT 7SM -RA OVC015 17/14 A3011 RMK AO2 RAE0759B18 SLP162 P0001 60001 T01670144 58005
cycle: 9

Station Type Date Time Source
KJCT TAF 2020/09/21 06:40 UTC NOAA

TAF KJCT 210537Z 2106/2206 02009KT P6SM VCSH BKN050 OVC250
FM211200 03008KT P6SM BKN020
FM211800 03011KT P6SM VCSH BKN050 OVC250
FM220100 03004KT P6SM BKN025

Example: see airport list